sensor_id;sensor_type;location;lat;lon;timestamp;temperature;humidity
7384;DHT22;3733;47.994;8.820;2023-03-01T00:00:54;-1.70;81.70
7384;DHT22;3733;47.994;8.820;2023-03-01T00:03:19;-1.70;82.50
7384;DHT22;3733;47.994;8.820;2023-03-01T00:05:46;-1.70;82.20
7384;DHT22;3733;47.994;8.820;2023-03-01T00:08:12;-1.60;83.00
7384;DHT22;3733;47.994;8.820;2023-03-01T00:10:38;-1.60;82.80
7384;DHT22;3733;47.994;8.820;2023-03-01T00:13:03;-1.60;82.70
7384;DHT22;3733;47.994;8.820;2023-03-01T00:15:31;-1.60;83.70
7384;DHT22;3733;47.994;8.820;2023-03-01T00:17:57;-1.60;84.40
7384;DHT22;3733;47.994;8.820;2023-03-01T00:20:23;-1.50;84.40
7384;DHT22;3733;47.994;8.820;2023-03-01T00:22:48;-1.50;84.30
7384;DHT22;3733;47.994;8.820;2023-03-01T00:25:14;-1.40;84.20
7384;DHT22;3733;47.994;8.820;2023-03-01T00:27:39;-1.40;83.90
7384;DHT22;3733;47.994;8.820;2023-03-01T00:30:06;-1.40;83.90
7384;DHT22;3733;47.994;8.820;2023-03-01T00:32:31;-1.40;83.40
7384;DHT22;3733;47.994;8.820;2023-03-01T00:34:57;-1.30;83.30
7384;DHT22;3733;47.994;8.820;2023-03-01T00:37:23;-1.30;84.20
7384;DHT22;3733;47.994;8.820;2023-03-01T00:39:49;-1.30;84.00
7384;DHT22;3733;47.994;8.820;2023-03-01T00:42:15;-1.20;84.20
7384;DHT22;3733;47.994;8.820;2023-03-01T00:44:41;-1.20;84.00
7384;DHT22;3733;47.994;8.820;2023-03-01T00:47:07;-1.20;84.00
7384;DHT22;3733;47.994;8.820;2023-03-01T00:49:33;-1.20;83.80
7384;DHT22;3733;47.994;8.820;2023-03-01T00:51:58;-1.10;83.80
7384;DHT22;3733;47.994;8.820;2023-03-01T00:54:24;-1.10;83.70
7384;DHT22;3733;47.994;8.820;2023-03-01T00:56:49;-1.10;83.40
7384;DHT22;3733;47.994;8.820;2023-03-01T00:59:15;-1.10;82.60
7384;DHT22;3733;47.994;8.820;2023-03-01T01:01:40;-1.10;82.50
7384;DHT22;3733;47.994;8.820;2023-03-01T01:04:09;-1.10;82.70
7384;DHT22;3733;47.994;8.820;2023-03-01T01:06:42;-1.00;82.50
7384;DHT22;3733;47.994;8.820;2023-03-01T01:09:10;-1.00;82.20
7384;DHT22;3733;47.994;8.820;2023-03-01T01:11:42;-1.00;82.00
7384;DHT22;3733;47.994;8.820;2023-03-01T01:14:08;-0.90;82.00
7384;DHT22;3733;47.994;8.820;2023-03-01T01:16:34;-0.90;81.90
7384;DHT22;3733;47.994;8.820;2023-03-01T01:18:59;-0.90;81.60
7384;DHT22;3733;47.994;8.820;2023-03-01T01:21:25;-0.90;81.10
7384;DHT22;3733;47.994;8.820;2023-03-01T01:23:52;-0.90;81.70
7384;DHT22;3733;47.994;8.820;2023-03-01T01:26:21;-0.80;81.40
7384;DHT22;3733;47.994;8.820;2023-03-01T01:28:47;-0.80;82.20
7384;DHT22;3733;47.994;8.820;2023-03-01T01:31:13;-0.80;81.70
7384;DHT22;3733;47.994;8.820;2023-03-01T01:33:39;-0.80;82.10
7384;DHT22;3733;47.994;8.820;2023-03-01T01:36:06;-0.70;82.70
7384;DHT22;3733;47.994;8.820;2023-03-01T01:38:33;-0.70;82.60
7384;DHT22;3733;47.994;8.820;2023-03-01T01:40:59;-0.70;82.30
7384;DHT22;3733;47.994;8.820;2023-03-01T01:43:45;-0.70;82.20
7384;DHT22;3733;47.994;8.820;2023-03-01T01:46:32;-0.70;82.70
7384;DHT22;3733;47.994;8.820;2023-03-01T01:49:03;-0.60;83.10
7384;DHT22;3733;47.994;8.820;2023-03-01T01:51:35;-0.60;83.00
7384;DHT22;3733;47.994;8.820;2023-03-01T01:54:11;-0.60;83.20
7384;DHT22;3733;47.994;8.820;2023-03-01T01:56:40;-0.60;82.70
7384;DHT22;3733;47.994;8.820;2023-03-01T01:59:07;-0.60;82.40
7384;DHT22;3733;47.994;8.820;2023-03-01T02:01:32;-0.50;82.60
7384;DHT22;3733;47.994;8.820;2023-03-01T02:03:58;-0.50;82.20
7384;DHT22;3733;47.994;8.820;2023-03-01T02:06:26;-0.50;82.20
7384;DHT22;3733;47.994;8.820;2023-03-01T02:09:02;-0.50;81.70
7384;DHT22;3733;47.994;8.820;2023-03-01T02:11:30;-0.50;81.80
7384;DHT22;3733;47.994;8.820;2023-03-01T02:13:56;-0.40;81.70
7384;DHT22;3733;47.994;8.820;2023-03-01T02:16:22;-0.40;81.80
7384;DHT22;3733;47.994;8.820;2023-03-01T02:18:47;-0.40;82.00
7384;DHT22;3733;47.994;8.820;2023-03-01T02:23:59;-0.40;82.40
7384;DHT22;3733;47.994;8.820;2023-03-01T02:26:51;-0.40;82.60
7384;DHT22;3733;47.994;8.820;2023-03-01T02:29:18;-0.40;82.70
7384;DHT22;3733;47.994;8.820;2023-03-01T02:31:43;-0.40;81.40
7384;DHT22;3733;47.994;8.820;2023-03-01T02:34:18;-0.30;81.50
7384;DHT22;3733;47.994;8.820;2023-03-01T02:39:19;-0.30;81.70
7384;DHT22;3733;47.994;8.820;2023-03-01T02:41:49;-0.30;82.00
7384;DHT22;3733;47.994;8.820;2023-03-01T02:44:15;-0.30;82.10
7384;DHT22;3733;47.994;8.820;2023-03-01T02:46:47;-0.30;81.80
7384;DHT22;3733;47.994;8.820;2023-03-01T02:55:12;-0.20;80.50
7384;DHT22;3733;47.994;8.820;2023-03-01T02:57:45;-0.20;80.90
7384;DHT22;3733;47.994;8.820;2023-03-01T03:02:45;-0.20;79.90
7384;DHT22;3733;47.994;8.820;2023-03-01T03:05:20;-0.20;80.00
7384;DHT22;3733;47.994;8.820;2023-03-01T03:07:47;-0.20;80.50
7384;DHT22;3733;47.994;8.820;2023-03-01T03:10:24;-0.20;80.80
7384;DHT22;3733;47.994;8.820;2023-03-01T03:12:51;-0.20;80.40
7384;DHT22;3733;47.994;8.820;2023-03-01T03:15:18;-0.20;80.50
7384;DHT22;3733;47.994;8.820;2023-03-01T03:17:45;-0.20;81.10
7384;DHT22;3733;47.994;8.820;2023-03-01T03:20:13;-0.20;81.40
7384;DHT22;3733;47.994;8.820;2023-03-01T03:22:44;-0.10;81.50
7384;DHT22;3733;47.994;8.820;2023-03-01T03:25:10;-0.10;81.30
7384;DHT22;3733;47.994;8.820;2023-03-01T03:27:41;-0.10;81.00
7384;DHT22;3733;47.994;8.820;2023-03-01T03:30:10;-0.10;81.00
7384;DHT22;3733;47.994;8.820;2023-03-01T03:32:38;-0.10;80.90
7384;DHT22;3733;47.994;8.820;2023-03-01T03:35:05;-0.10;80.80
7384;DHT22;3733;47.994;8.820;2023-03-01T03:37:39;-0.10;81.30
7384;DHT22;3733;47.994;8.820;2023-03-01T03:40:24;-0.10;81.50
7384;DHT22;3733;47.994;8.820;2023-03-01T03:42:50;-0.10;81.90
7384;DHT22;3733;47.994;8.820;2023-03-01T03:45:16;-0.10;82.00
7384;DHT22;3733;47.994;8.820;2023-03-01T03:47:42;-0.10;82.50
7384;DHT22;3733;47.994;8.820;2023-03-01T03:50:09;-0.10;82.80
7384;DHT22;3733;47.994;8.820;2023-03-01T03:52:35;-0.10;82.60
7384;DHT22;3733;47.994;8.820;2023-03-01T03:55:01;-0.10;82.50
7384;DHT22;3733;47.994;8.820;2023-03-01T03:57:26;-0.10;82.60
7384;DHT22;3733;47.994;8.820;2023-03-01T03:59:52;-0.20;82.30
7384;DHT22;3733;47.994;8.820;2023-03-01T04:02:17;-0.20;82.50
7384;DHT22;3733;47.994;8.820;2023-03-01T04:04:48;-0.10;83.30
7384;DHT22;3733;47.994;8.820;2023-03-01T04:07:15;-0.10;83.20
7384;DHT22;3733;47.994;8.820;2023-03-01T04:09:42;-0.20;83.30
7384;DHT22;3733;47.994;8.820;2023-03-01T04:12:08;-0.10;84.00
7384;DHT22;3733;47.994;8.820;2023-03-01T04:14:33;-0.10;83.70
7384;DHT22;3733;47.994;8.820;2023-03-01T04:16:59;-0.10;83.90
7384;DHT22;3733;47.994;8.820;2023-03-01T04:19:25;-0.10;84.00
7384;DHT22;3733;47.994;8.820;2023-03-01T04:21:52;-0.10;83.90
7384;DHT22;3733;47.994;8.820;2023-03-01T04:24:18;-0.10;84.20
7384;DHT22;3733;47.994;8.820;2023-03-01T04:26:44;-0.10;84.00
7384;DHT22;3733;47.994;8.820;2023-03-01T04:29:09;-0.10;84.10
7384;DHT22;3733;47.994;8.820;2023-03-01T04:31:35;-0.10;84.60
7384;DHT22;3733;47.994;8.820;2023-03-01T04:34:01;-0.10;84.80
7384;DHT22;3733;47.994;8.820;2023-03-01T04:36:28;-0.10;84.90
7384;DHT22;3733;47.994;8.820;2023-03-01T04:38:54;-0.10;84.40
7384;DHT22;3733;47.994;8.820;2023-03-01T04:41:22;-0.10;84.10
7384;DHT22;3733;47.994;8.820;2023-03-01T04:43:48;-0.10;84.10
7384;DHT22;3733;47.994;8.820;2023-03-01T04:46:17;-0.10;84.40
7384;DHT22;3733;47.994;8.820;2023-03-01T04:48:44;-0.10;84.40
7384;DHT22;3733;47.994;8.820;2023-03-01T04:51:10;-0.10;84.30
7384;DHT22;3733;47.994;8.820;2023-03-01T04:53:39;-0.10;84.00
7384;DHT22;3733;47.994;8.820;2023-03-01T04:56:05;-0.10;84.70
7384;DHT22;3733;47.994;8.820;2023-03-01T04:58:31;-0.10;86.00
7384;DHT22;3733;47.994;8.820;2023-03-01T05:00:57;-0.10;88.90
7384;DHT22;3733;47.994;8.820;2023-03-01T05:03:23;0.00;89.90
7384;DHT22;3733;47.994;8.820;2023-03-01T05:05:51;0.00;87.80
7384;DHT22;3733;47.994;8.820;2023-03-01T05:08:17;0.10;85.50
7384;DHT22;3733;47.994;8.820;2023-03-01T05:10:51;0.10;84.40
7384;DHT22;3733;47.994;8.820;2023-03-01T05:13:18;0.10;83.60
7384;DHT22;3733;47.994;8.820;2023-03-01T05:15:56;0.10;84.00
7384;DHT22;3733;47.994;8.820;2023-03-01T05:18:23;0.00;83.60
7384;DHT22;3733;47.994;8.820;2023-03-01T05:20:55;0.00;83.20
7384;DHT22;3733;47.994;8.820;2023-03-01T05:23:22;0.10;83.00
7384;DHT22;3733;47.994;8.820;2023-03-01T05:25:48;0.10;82.80
7384;DHT22;3733;47.994;8.820;2023-03-01T05:28:14;0.10;82.30
7384;DHT22;3733;47.994;8.820;2023-03-01T05:30:40;0.10;82.70
7384;DHT22;3733;47.994;8.820;2023-03-01T05:33:07;0.10;82.80
7384;DHT22;3733;47.994;8.820;2023-03-01T05:35:39;0.10;83.00
7384;DHT22;3733;47.994;8.820;2023-03-01T05:38:04;0.10;83.10
7384;DHT22;3733;47.994;8.820;2023-03-01T05:40:32;0.10;82.80
7384;DHT22;3733;47.994;8.820;2023-03-01T05:42:58;0.10;82.10
7384;DHT22;3733;47.994;8.820;2023-03-01T05:45:25;0.10;82.10
7384;DHT22;3733;47.994;8.820;2023-03-01T05:47:52;0.00;81.80
7384;DHT22;3733;47.994;8.820;2023-03-01T05:50:24;0.00;81.50
7384;DHT22;3733;47.994;8.820;2023-03-01T05:53:17;0.00;82.10
7384;DHT22;3733;47.994;8.820;2023-03-01T05:55:44;0.00;82.40
7384;DHT22;3733;47.994;8.820;2023-03-01T05:58:13;0.00;81.80
7384;DHT22;3733;47.994;8.820;2023-03-01T06:00:39;0.00;81.70
7384;DHT22;3733;47.994;8.820;2023-03-01T06:03:05;0.00;81.80
7384;DHT22;3733;47.994;8.820;2023-03-01T06:05:31;0.00;81.50
7384;DHT22;3733;47.994;8.820;2023-03-01T06:08:01;0.00;82.00
7384;DHT22;3733;47.994;8.820;2023-03-01T06:10:26;0.00;81.20
7384;DHT22;3733;47.994;8.820;2023-03-01T06:12:53;-0.10;81.70
7384;DHT22;3733;47.994;8.820;2023-03-01T06:15:20;-0.10;82.70
7384;DHT22;3733;47.994;8.820;2023-03-01T06:17:46;-0.10;82.30
7384;DHT22;3733;47.994;8.820;2023-03-01T06:20:15;-0.10;82.40
7384;DHT22;3733;47.994;8.820;2023-03-01T06:22:42;-0.10;83.40
7384;DHT22;3733;47.994;8.820;2023-03-01T06:25:09;-0.10;82.90
7384;DHT22;3733;47.994;8.820;2023-03-01T06:27:35;-0.10;83.70
7384;DHT22;3733;47.994;8.820;2023-03-01T06:30:01;-0.10;84.30
7384;DHT22;3733;47.994;8.820;2023-03-01T06:32:27;-0.10;84.10
7384;DHT22;3733;47.994;8.820;2023-03-01T06:34:53;-0.10;84.40
7384;DHT22;3733;47.994;8.820;2023-03-01T06:37:18;-0.20;83.50
7384;DHT22;3733;47.994;8.820;2023-03-01T06:39:44;-0.20;84.40
7384;DHT22;3733;47.994;8.820;2023-03-01T06:42:10;-0.20;86.00
7384;DHT22;3733;47.994;8.820;2023-03-01T06:44:37;-0.20;86.20
7384;DHT22;3733;47.994;8.820;2023-03-01T06:47:03;-0.20;85.80
7384;DHT22;3733;47.994;8.820;2023-03-01T06:49:28;-0.20;86.30
7384;DHT22;3733;47.994;8.820;2023-03-01T06:51:54;-0.20;85.90
7384;DHT22;3733;47.994;8.820;2023-03-01T06:54:20;-0.20;86.30
7384;DHT22;3733;47.994;8.820;2023-03-01T06:56:48;-0.20;86.10
7384;DHT22;3733;47.994;8.820;2023-03-01T06:59:14;-0.20;86.80
7384;DHT22;3733;47.994;8.820;2023-03-01T07:01:40;-0.20;86.90
7384;DHT22;3733;47.994;8.820;2023-03-01T07:04:06;-0.20;86.80
7384;DHT22;3733;47.994;8.820;2023-03-01T07:06:31;-0.20;85.80
7384;DHT22;3733;47.994;8.820;2023-03-01T07:08:57;-0.20;85.50
7384;DHT22;3733;47.994;8.820;2023-03-01T07:11:23;-0.20;85.90
7384;DHT22;3733;47.994;8.820;2023-03-01T07:13:49;-0.20;86.20
7384;DHT22;3733;47.994;8.820;2023-03-01T07:16:14;-0.20;86.30
7384;DHT22;3733;47.994;8.820;2023-03-01T07:18:40;-0.20;86.00
7384;DHT22;3733;47.994;8.820;2023-03-01T07:21:12;-0.20;84.90
7384;DHT22;3733;47.994;8.820;2023-03-01T07:23:38;-0.20;84.80
7384;DHT22;3733;47.994;8.820;2023-03-01T07:26:04;-0.10;84.40
7384;DHT22;3733;47.994;8.820;2023-03-01T07:28:30;-0.10;85.30
7384;DHT22;3733;47.994;8.820;2023-03-01T07:31:01;-0.10;86.30
7384;DHT22;3733;47.994;8.820;2023-03-01T07:33:27;-0.10;85.50
7384;DHT22;3733;47.994;8.820;2023-03-01T07:36:00;-0.10;84.90
7384;DHT22;3733;47.994;8.820;2023-03-01T07:38:27;-0.10;84.60
7384;DHT22;3733;47.994;8.820;2023-03-01T07:40:52;-0.10;84.00
7384;DHT22;3733;47.994;8.820;2023-03-01T07:43:18;-0.10;84.50
7384;DHT22;3733;47.994;8.820;2023-03-01T07:45:44;-0.10;85.00
7384;DHT22;3733;47.994;8.820;2023-03-01T07:48:10;0.00;84.80
7384;DHT22;3733;47.994;8.820;2023-03-01T07:50:35;0.00;84.00
7384;DHT22;3733;47.994;8.820;2023-03-01T07:53:01;0.00;83.40
7384;DHT22;3733;47.994;8.820;2023-03-01T07:55:27;0.00;83.20
7384;DHT22;3733;47.994;8.820;2023-03-01T07:57:53;0.00;83.50
7384;DHT22;3733;47.994;8.820;2023-03-01T08:00:19;0.00;83.40
7384;DHT22;3733;47.994;8.820;2023-03-01T08:02:44;0.00;83.80
7384;DHT22;3733;47.994;8.820;2023-03-01T08:05:10;0.00;83.20
7384;DHT22;3733;47.994;8.820;2023-03-01T08:07:36;0.00;84.20
7384;DHT22;3733;47.994;8.820;2023-03-01T08:10:02;0.00;84.70
7384;DHT22;3733;47.994;8.820;2023-03-01T08:12:28;0.00;84.30
7384;DHT22;3733;47.994;8.820;2023-03-01T08:14:54;0.00;83.20
7384;DHT22;3733;47.994;8.820;2023-03-01T08:17:20;0.00;83.50
7384;DHT22;3733;47.994;8.820;2023-03-01T08:19:46;0.00;83.50
7384;DHT22;3733;47.994;8.820;2023-03-01T08:22:11;0.00;82.60
7384;DHT22;3733;47.994;8.820;2023-03-01T08:24:37;0.00;82.10
7384;DHT22;3733;47.994;8.820;2023-03-01T08:27:03;0.00;82.20
7384;DHT22;3733;47.994;8.820;2023-03-01T08:29:30;0.00;81.90
7384;DHT22;3733;47.994;8.820;2023-03-01T08:31:56;0.00;81.50
7384;DHT22;3733;47.994;8.820;2023-03-01T08:34:22;0.00;82.40
7384;DHT22;3733;47.994;8.820;2023-03-01T08:36:47;0.00;83.00
7384;DHT22;3733;47.994;8.820;2023-03-01T08:39:15;0.10;82.50
7384;DHT22;3733;47.994;8.820;2023-03-01T08:41:42;0.10;81.90
7384;DHT22;3733;47.994;8.820;2023-03-01T08:44:09;0.10;80.70
7384;DHT22;3733;47.994;8.820;2023-03-01T08:46:37;0.10;80.20
7384;DHT22;3733;47.994;8.820;2023-03-01T08:49:05;0.20;80.10
7384;DHT22;3733;47.994;8.820;2023-03-01T08:51:31;0.20;79.40
7384;DHT22;3733;47.994;8.820;2023-03-01T08:54:05;0.20;79.40
7384;DHT22;3733;47.994;8.820;2023-03-01T08:56:32;0.20;78.40
7384;DHT22;3733;47.994;8.820;2023-03-01T08:58:58;0.20;78.40
7384;DHT22;3733;47.994;8.820;2023-03-01T09:01:23;0.20;77.80
7384;DHT22;3733;47.994;8.820;2023-03-01T09:03:49;0.20;77.90
7384;DHT22;3733;47.994;8.820;2023-03-01T09:06:15;0.20;78.70
7384;DHT22;3733;47.994;8.820;2023-03-01T09:08:47;0.30;78.30
7384;DHT22;3733;47.994;8.820;2023-03-01T09:11:15;0.30;77.20
7384;DHT22;3733;47.994;8.820;2023-03-01T09:13:42;0.30;76.00
7384;DHT22;3733;47.994;8.820;2023-03-01T09:16:08;0.30;76.00
7384;DHT22;3733;47.994;8.820;2023-03-01T09:18:35;0.30;76.50
7384;DHT22;3733;47.994;8.820;2023-03-01T09:21:06;0.30;75.90
7384;DHT22;3733;47.994;8.820;2023-03-01T09:23:38;0.40;75.50
7384;DHT22;3733;47.994;8.820;2023-03-01T09:26:08;0.40;75.90
7384;DHT22;3733;47.994;8.820;2023-03-01T09:28:35;0.40;75.80
7384;DHT22;3733;47.994;8.820;2023-03-01T09:31:02;0.40;74.30
7384;DHT22;3733;47.994;8.820;2023-03-01T09:33:32;0.40;74.00
7384;DHT22;3733;47.994;8.820;2023-03-01T09:36:03;0.50;74.10
7384;DHT22;3733;47.994;8.820;2023-03-01T09:38:29;0.50;73.90
7384;DHT22;3733;47.994;8.820;2023-03-01T09:40:55;0.50;74.60
7384;DHT22;3733;47.994;8.820;2023-03-01T09:46:03;0.60;76.40
7384;DHT22;3733;47.994;8.820;2023-03-01T09:48:37;0.60;75.20
7384;DHT22;3733;47.994;8.820;2023-03-01T09:51:12;0.60;74.50
7384;DHT22;3733;47.994;8.820;2023-03-01T09:53:39;0.60;73.40
7384;DHT22;3733;47.994;8.820;2023-03-01T09:56:29;0.70;73.10
7384;DHT22;3733;47.994;8.820;2023-03-01T09:59:25;0.70;73.80
7384;DHT22;3733;47.994;8.820;2023-03-01T10:04:46;0.80;73.00
7384;DHT22;3733;47.994;8.820;2023-03-01T10:07:30;0.80;73.30
7384;DHT22;3733;47.994;8.820;2023-03-01T10:09:58;0.80;72.70
7384;DHT22;3733;47.994;8.820;2023-03-01T10:12:31;0.80;72.80
7384;DHT22;3733;47.994;8.820;2023-03-01T10:17:37;0.80;72.60
7384;DHT22;3733;47.994;8.820;2023-03-01T10:22:41;0.80;71.60
7384;DHT22;3733;47.994;8.820;2023-03-01T10:25:08;0.90;70.80
7384;DHT22;3733;47.994;8.820;2023-03-01T10:27:50;0.90;70.40
7384;DHT22;3733;47.994;8.820;2023-03-01T10:32:49;0.90;70.80
7384;DHT22;3733;47.994;8.820;2023-03-01T10:38:06;1.10;71.00
7384;DHT22;3733;47.994;8.820;2023-03-01T10:40:33;1.20;70.10
7384;DHT22;3733;47.994;8.820;2023-03-01T10:43:05;1.20;69.10
7384;DHT22;3733;47.994;8.820;2023-03-01T10:45:38;1.20;69.00
7384;DHT22;3733;47.994;8.820;2023-03-01T10:48:12;1.20;68.90
7384;DHT22;3733;47.994;8.820;2023-03-01T10:50:43;1.30;69.00
7384;DHT22;3733;47.994;8.820;2023-03-01T10:53:31;1.30;68.60
7384;DHT22;3733;47.994;8.820;2023-03-01T10:56:09;1.40;68.40
7384;DHT22;3733;47.994;8.820;2023-03-01T10:58:37;1.40;68.60
7384;DHT22;3733;47.994;8.820;2023-03-01T11:03:32;1.60;68.50
7384;DHT22;3733;47.994;8.820;2023-03-01T11:08:46;1.70;67.20
7384;DHT22;3733;47.994;8.820;2023-03-01T11:11:14;1.80;66.80
7384;DHT22;3733;47.994;8.820;2023-03-01T11:17:12;1.90;66.10
7384;DHT22;3733;47.994;8.820;2023-03-01T11:19:40;1.80;65.80
7384;DHT22;3733;47.994;8.820;2023-03-01T11:22:12;1.80;66.00
7384;DHT22;3733;47.994;8.820;2023-03-01T11:24:45;1.80;66.20
7384;DHT22;3733;47.994;8.820;2023-03-01T11:27:33;1.90;66.30
7384;DHT22;3733;47.994;8.820;2023-03-01T11:30:07;1.90;66.10
7384;DHT22;3733;47.994;8.820;2023-03-01T11:35:41;2.10;65.60
7384;DHT22;3733;47.994;8.820;2023-03-01T11:38:37;2.10;65.20
7384;DHT22;3733;47.994;8.820;2023-03-01T12:14:09;2.20;64.70
7384;DHT22;3733;47.994;8.820;2023-03-01T12:20:12;2.30;63.60
7384;DHT22;3733;47.994;8.820;2023-03-01T12:25:38;2.40;63.60
7384;DHT22;3733;47.994;8.820;2023-03-01T12:36:52;2.60;65.20
7384;DHT22;3733;47.994;8.820;2023-03-01T12:50:11;3.40;60.60
7384;DHT22;3733;47.994;8.820;2023-03-01T12:52:44;3.70;60.40
7384;DHT22;3733;47.994;8.820;2023-03-01T12:55:38;3.80;58.50
7384;DHT22;3733;47.994;8.820;2023-03-01T13:12:00;6.00;54.10
7384;DHT22;3733;47.994;8.820;2023-03-01T13:16:52;6.40;52.60
7384;DHT22;3733;47.994;8.820;2023-03-01T13:21:50;5.80;52.00
7384;DHT22;3733;47.994;8.820;2023-03-01T13:24:37;5.90;53.40
7384;DHT22;3733;47.994;8.820;2023-03-01T13:29:52;6.40;53.50
7384;DHT22;3733;47.994;8.820;2023-03-01T13:32:27;6.30;52.20
7384;DHT22;3733;47.994;8.820;2023-03-01T13:37:44;5.80;52.10
7384;DHT22;3733;47.994;8.820;2023-03-01T13:42:56;5.20;53.10
7384;DHT22;3733;47.994;8.820;2023-03-01T13:45:40;5.10;53.80
7384;DHT22;3733;47.994;8.820;2023-03-01T13:48:26;5.00;53.70
7384;DHT22;3733;47.994;8.820;2023-03-01T13:50:55;4.80;53.90
7384;DHT22;3733;47.994;8.820;2023-03-01T13:53:25;4.70;54.50
7384;DHT22;3733;47.994;8.820;2023-03-01T13:55:57;4.90;55.00
7384;DHT22;3733;47.994;8.820;2023-03-01T13:58:31;5.20;54.80
7384;DHT22;3733;47.994;8.820;2023-03-01T14:01:06;5.40;53.60
7384;DHT22;3733;47.994;8.820;2023-03-01T14:03:33;5.50;53.60
7384;DHT22;3733;47.994;8.820;2023-03-01T14:06:08;5.60;53.40
7384;DHT22;3733;47.994;8.820;2023-03-01T14:08:36;5.90;53.60
7384;DHT22;3733;47.994;8.820;2023-03-01T14:19:57;6.50;51.40
7384;DHT22;3733;47.994;8.820;2023-03-01T14:24:50;7.10;50.90
7384;DHT22;3733;47.994;8.820;2023-03-01T14:27:17;7.30;50.40
7384;DHT22;3733;47.994;8.820;2023-03-01T14:29:44;7.60;50.10
7384;DHT22;3733;47.994;8.820;2023-03-01T14:32:21;7.80;49.30
7384;DHT22;3733;47.994;8.820;2023-03-01T14:34:48;7.90;49.60
7384;DHT22;3733;47.994;8.820;2023-03-01T14:39:56;8.10;48.70
7384;DHT22;3733;47.994;8.820;2023-03-01T14:42:24;8.10;48.10
7384;DHT22;3733;47.994;8.820;2023-03-01T14:44:54;8.20;48.10
7384;DHT22;3733;47.994;8.820;2023-03-01T14:47:28;8.40;47.70
7384;DHT22;3733;47.994;8.820;2023-03-01T14:49:58;8.50;47.60
7384;DHT22;3733;47.994;8.820;2023-03-01T14:52:34;8.60;47.20
7384;DHT22;3733;47.994;8.820;2023-03-01T14:55:02;8.60;47.00
7384;DHT22;3733;47.994;8.820;2023-03-01T14:57:29;8.70;46.70
7384;DHT22;3733;47.994;8.820;2023-03-01T14:59:58;8.70;46.60
7384;DHT22;3733;47.994;8.820;2023-03-01T15:02:26;8.80;46.60
7384;DHT22;3733;47.994;8.820;2023-03-01T15:04:55;9.10;46.50
7384;DHT22;3733;47.994;8.820;2023-03-01T15:07:24;9.30;46.00
7384;DHT22;3733;47.994;8.820;2023-03-01T15:09:52;9.60;45.50
7384;DHT22;3733;47.994;8.820;2023-03-01T15:14:55;10.20;43.90
7384;DHT22;3733;47.994;8.820;2023-03-01T15:19:58;11.30;42.30
7384;DHT22;3733;47.994;8.820;2023-03-01T15:22:26;12.00;41.00
7384;DHT22;3733;47.994;8.820;2023-03-01T15:24:52;12.40;39.90
7384;DHT22;3733;47.994;8.820;2023-03-01T15:27:23;12.80;38.90
7384;DHT22;3733;47.994;8.820;2023-03-01T15:34:57;14.40;36.50
7384;DHT22;3733;47.994;8.820;2023-03-01T15:37:56;14.80;35.70
7384;DHT22;3733;47.994;8.820;2023-03-01T15:40:26;15.30;34.90
7384;DHT22;3733;47.994;8.820;2023-03-01T15:42:59;15.50;34.30
7384;DHT22;3733;47.994;8.820;2023-03-01T15:45:27;14.70;33.70
7384;DHT22;3733;47.994;8.820;2023-03-01T15:47:56;13.10;35.00
7384;DHT22;3733;47.994;8.820;2023-03-01T15:50:28;11.60;37.20
7384;DHT22;3733;47.994;8.820;2023-03-01T15:52:55;10.10;39.10
7384;DHT22;3733;47.994;8.820;2023-03-01T15:57:49;8.10;44.00
7384;DHT22;3733;47.994;8.820;2023-03-01T16:00:16;7.30;45.50
7384;DHT22;3733;47.994;8.820;2023-03-01T16:02:43;6.70;46.90
7384;DHT22;3733;47.994;8.820;2023-03-01T16:05:23;6.20;48.10
7384;DHT22;3733;47.994;8.820;2023-03-01T16:07:49;5.80;49.30
7384;DHT22;3733;47.994;8.820;2023-03-01T16:10:15;5.50;50.30
7384;DHT22;3733;47.994;8.820;2023-03-01T16:12:41;5.30;51.00
7384;DHT22;3733;47.994;8.820;2023-03-01T16:15:24;5.10;51.60
7384;DHT22;3733;47.994;8.820;2023-03-01T16:17:51;4.90;52.70
7384;DHT22;3733;47.994;8.820;2023-03-01T16:20:17;4.70;52.70
7384;DHT22;3733;47.994;8.820;2023-03-01T16:22:43;4.60;53.10
7384;DHT22;3733;47.994;8.820;2023-03-01T16:25:14;4.50;53.50
7384;DHT22;3733;47.994;8.820;2023-03-01T16:27:47;4.50;53.90
7384;DHT22;3733;47.994;8.820;2023-03-01T16:30:19;4.40;54.20
7384;DHT22;3733;47.994;8.820;2023-03-01T16:32:46;4.40;54.60
7384;DHT22;3733;47.994;8.820;2023-03-01T16:35:15;4.30;54.70
7384;DHT22;3733;47.994;8.820;2023-03-01T16:37:41;4.20;54.90
7384;DHT22;3733;47.994;8.820;2023-03-01T16:40:22;4.10;55.00
7384;DHT22;3733;47.994;8.820;2023-03-01T16:42:48;4.00;55.20
7384;DHT22;3733;47.994;8.820;2023-03-01T16:45:15;4.00;55.60
7384;DHT22;3733;47.994;8.820;2023-03-01T16:47:41;3.90;55.70
7384;DHT22;3733;47.994;8.820;2023-03-01T16:50:07;3.90;56.00
7384;DHT22;3733;47.994;8.820;2023-03-01T16:52:33;3.80;56.20
7384;DHT22;3733;47.994;8.820;2023-03-01T16:54:59;3.70;56.40
7384;DHT22;3733;47.994;8.820;2023-03-01T16:57:24;3.60;56.50
7384;DHT22;3733;47.994;8.820;2023-03-01T16:59:53;3.50;57.30
7384;DHT22;3733;47.994;8.820;2023-03-01T17:02:19;3.50;57.10
7384;DHT22;3733;47.994;8.820;2023-03-01T17:04:51;3.40;57.30
7384;DHT22;3733;47.994;8.820;2023-03-01T17:07:16;3.30;57.50
7384;DHT22;3733;47.994;8.820;2023-03-01T17:09:42;3.20;57.70
7384;DHT22;3733;47.994;8.820;2023-03-01T17:12:08;3.10;57.90
7384;DHT22;3733;47.994;8.820;2023-03-01T17:14:34;3.00;58.20
7384;DHT22;3733;47.994;8.820;2023-03-01T17:16:59;3.00;58.50
7384;DHT22;3733;47.994;8.820;2023-03-01T17:19:27;2.90;58.70
7384;DHT22;3733;47.994;8.820;2023-03-01T17:21:54;2.90;59.00
7384;DHT22;3733;47.994;8.820;2023-03-01T17:24:19;2.90;59.30
7384;DHT22;3733;47.994;8.820;2023-03-01T17:26:45;2.90;59.40
7384;DHT22;3733;47.994;8.820;2023-03-01T17:29:10;2.90;59.60
7384;DHT22;3733;47.994;8.820;2023-03-01T17:31:37;2.90;59.70
7384;DHT22;3733;47.994;8.820;2023-03-01T17:34:03;2.90;59.80
7384;DHT22;3733;47.994;8.820;2023-03-01T17:36:28;2.80;59.90
7384;DHT22;3733;47.994;8.820;2023-03-01T17:38:54;2.80;60.00
7384;DHT22;3733;47.994;8.820;2023-03-01T17:41:20;2.80;60.20
7384;DHT22;3733;47.994;8.820;2023-03-01T17:43:48;2.80;60.50
7384;DHT22;3733;47.994;8.820;2023-03-01T17:46:13;2.80;60.70
7384;DHT22;3733;47.994;8.820;2023-03-01T17:48:39;2.80;60.90
7384;DHT22;3733;47.994;8.820;2023-03-01T17:51:06;2.80;61.30
7384;DHT22;3733;47.994;8.820;2023-03-01T17:53:32;2.80;61.70
7384;DHT22;3733;47.994;8.820;2023-03-01T17:56:02;2.80;61.90
7384;DHT22;3733;47.994;8.820;2023-03-01T17:58:29;2.80;61.90
7384;DHT22;3733;47.994;8.820;2023-03-01T18:00:55;2.80;62.00
7384;DHT22;3733;47.994;8.820;2023-03-01T18:03:20;2.80;62.20
7384;DHT22;3733;47.994;8.820;2023-03-01T18:05:46;2.80;62.30
7384;DHT22;3733;47.994;8.820;2023-03-01T18:08:12;2.80;62.20
7384;DHT22;3733;47.994;8.820;2023-03-01T18:10:38;2.80;62.20
7384;DHT22;3733;47.994;8.820;2023-03-01T18:13:04;2.80;62.70
7384;DHT22;3733;47.994;8.820;2023-03-01T18:15:30;2.80;62.80
7384;DHT22;3733;47.994;8.820;2023-03-01T18:17:56;2.80;62.70
7384;DHT22;3733;47.994;8.820;2023-03-01T18:20:22;2.80;62.60
7384;DHT22;3733;47.994;8.820;2023-03-01T18:22:47;2.80;62.60
7384;DHT22;3733;47.994;8.820;2023-03-01T18:25:15;2.80;62.70
7384;DHT22;3733;47.994;8.820;2023-03-01T18:27:40;2.80;63.10
7384;DHT22;3733;47.994;8.820;2023-03-01T18:30:07;2.80;63.20
7384;DHT22;3733;47.994;8.820;2023-03-01T18:32:33;2.90;63.30
7384;DHT22;3733;47.994;8.820;2023-03-01T18:34:58;2.90;63.50
7384;DHT22;3733;47.994;8.820;2023-03-01T18:37:24;2.90;62.80
7384;DHT22;3733;47.994;8.820;2023-03-01T18:39:51;2.90;62.60
7384;DHT22;3733;47.994;8.820;2023-03-01T18:42:17;2.80;62.50
7384;DHT22;3733;47.994;8.820;2023-03-01T18:44:45;2.80;62.50
7384;DHT22;3733;47.994;8.820;2023-03-01T18:47:11;2.80;62.60
7384;DHT22;3733;47.994;8.820;2023-03-01T18:49:37;2.70;62.80
7384;DHT22;3733;47.994;8.820;2023-03-01T18:52:02;2.70;63.10
7384;DHT22;3733;47.994;8.820;2023-03-01T18:54:28;2.70;63.10